createdAt,value
2018-09-17T00:01:47.387Z,15.10
2018-09-17T00:03:51.592Z,15.20
2018-09-17T00:05:55.786Z,15.30
2018-09-17T00:08:00.015Z,15.20
2018-09-17T00:10:04.318Z,15.20
2018-09-17T00:12:08.473Z,15.20
2018-09-17T00:14:12.733Z,15.20
2018-09-17T00:16:17.631Z,15.20
2018-09-17T00:18:21.781Z,15.10
2018-09-17T00:20:25.992Z,15.00
2018-09-17T00:22:30.282Z,15.10
2018-09-17T00:24:34.510Z,15.10
2018-09-17T00:26:38.694Z,15.20
2018-09-17T00:28:42.933Z,15.00
2018-09-17T00:30:47.183Z,15.10
2018-09-17T00:32:51.358Z,15.10
2018-09-17T00:34:55.570Z,15.20
2018-09-17T00:36:59.818Z,15.20
2018-09-17T00:39:05.482Z,15.20
2018-09-17T00:41:10.068Z,15.10
2018-09-17T00:43:14.209Z,15.10
2018-09-17T00:45:18.372Z,15.00
2018-09-17T00:47:22.580Z,15.10
2018-09-17T00:49:26.805Z,15.00
2018-09-17T00:51:31.084Z,15.10
2018-09-17T00:53:35.358Z,15.00
2018-09-17T00:55:39.544Z,15.00
2018-09-17T00:57:43.811Z,15.10
2018-09-17T00:59:47.982Z,15.00
2018-09-17T01:01:52.279Z,15.00
2018-09-17T01:03:56.474Z,15.00
2018-09-17T01:06:00.739Z,15.00
2018-09-17T01:08:04.994Z,15.00
2018-09-17T01:10:09.499Z,15.10
2018-09-17T01:12:15.146Z,14.90
2018-09-17T01:14:19.335Z,14.90
2018-09-17T01:16:23.630Z,14.80
2018-09-17T01:18:27.786Z,14.80
2018-09-17T01:20:32.016Z,14.90
2018-09-17T01:22:36.234Z,15.00
2018-09-17T01:24:40.411Z,15.00
2018-09-17T01:26:44.606Z,15.00
2018-09-17T01:28:48.798Z,15.00
2018-09-17T01:30:52.997Z,15.00
2018-09-17T01:32:57.149Z,15.00
2018-09-17T01:35:01.374Z,15.00
2018-09-17T01:37:05.586Z,15.00
2018-09-17T01:39:11.059Z,15.00
2018-09-17T01:41:15.401Z,14.90
2018-09-17T01:43:19.796Z,14.90
2018-09-17T01:45:45.730Z,14.90
2018-09-17T01:47:52.510Z,14.70
2018-09-17T01:49:56.763Z,14.80
2018-09-17T01:52:00.926Z,14.80
2018-09-17T01:54:05.115Z,14.80
2018-09-17T01:56:09.342Z,14.70
2018-09-17T01:58:13.647Z,14.70
2018-09-17T02:00:17.909Z,14.70
2018-09-17T02:02:22.154Z,14.70
2018-09-17T02:04:26.312Z,14.60
2018-09-17T02:06:30.534Z,14.50
2018-09-17T02:08:34.778Z,14.60
2018-09-17T02:10:38.955Z,14.60
2018-09-17T02:12:43.132Z,14.50
2018-09-17T02:14:47.340Z,14.50
2018-09-17T02:16:51.559Z,14.50
2018-09-17T02:18:55.901Z,14.50
2018-09-17T02:21:00.148Z,14.60
2018-09-17T02:23:04.329Z,14.70
2018-09-17T02:25:08.603Z,14.50
2018-09-17T02:27:12.855Z,14.50
2018-09-17T02:29:17.024Z,14.60
2018-09-17T02:31:21.323Z,14.60
2018-09-17T02:33:25.950Z,14.60
2018-09-17T02:35:30.160Z,14.70
2018-09-17T02:37:34.443Z,14.40
2018-09-17T02:39:39.192Z,14.50
2018-09-17T02:41:43.423Z,14.60
2018-09-17T02:43:48.904Z,14.50
2018-09-17T02:45:53.729Z,14.40
2018-09-17T02:47:57.958Z,14.40
2018-09-17T02:50:02.191Z,14.40
2018-09-17T02:52:07.100Z,14.50
2018-09-17T02:54:11.346Z,14.60
2018-09-17T02:56:15.694Z,14.50
2018-09-17T02:58:20.742Z,14.40
2018-09-17T03:00:25.594Z,14.60
2018-09-17T03:02:30.478Z,14.50
2018-09-17T03:04:35.601Z,14.60
2018-09-17T03:06:40.901Z,14.60
2018-09-17T03:08:46.041Z,14.60
2018-09-17T03:10:50.669Z,14.60
2018-09-17T03:12:54.929Z,14.60
2018-09-17T03:15:04.163Z,14.60
2018-09-17T03:17:15.657Z,14.60
2018-09-17T03:19:19.778Z,14.50
2018-09-17T03:21:24.030Z,14.30
2018-09-17T03:23:28.214Z,14.40
2018-09-17T03:25:32.344Z,14.50
2018-09-17T03:27:36.616Z,14.40
2018-09-17T03:29:40.771Z,14.50
2018-09-17T03:31:44.958Z,14.50
2018-09-17T03:33:49.270Z,14.50
2018-09-17T03:35:53.515Z,14.30
2018-09-17T03:38:04.647Z,14.30
2018-09-17T03:40:08.909Z,14.40
2018-09-17T03:42:13.102Z,14.30
2018-09-17T03:44:17.476Z,14.30
2018-09-17T03:46:21.794Z,14.40
2018-09-17T03:48:25.943Z,14.10
2018-09-17T03:50:30.182Z,14.20
2018-09-17T03:52:34.367Z,14.10
2018-09-17T03:54:38.570Z,14.00
2018-09-17T03:56:42.883Z,14.00
2018-09-17T03:58:47.118Z,14.10
2018-09-17T04:00:51.300Z,13.90
2018-09-17T04:02:55.510Z,13.80
2018-09-17T04:04:59.678Z,13.80
2018-09-17T04:07:04.003Z,14.00
2018-09-17T04:09:08.699Z,14.10
2018-09-17T04:11:12.953Z,14.10
2018-09-17T04:13:17.348Z,14.10
2018-09-17T04:15:21.587Z,14.20
2018-09-17T04:17:25.880Z,14.10
2018-09-17T04:19:30.036Z,14.20
2018-09-17T04:21:34.258Z,14.30
2018-09-17T04:23:39.219Z,14.10
2018-09-17T04:25:43.407Z,14.20
2018-09-17T04:27:47.636Z,14.30
2018-09-17T04:29:51.812Z,14.30
2018-09-17T04:31:55.988Z,14.10
2018-09-17T04:34:00.240Z,14.10
2018-09-17T04:36:04.503Z,14.20
2018-09-17T04:38:08.694Z,14.20
2018-09-17T04:40:12.884Z,14.00
2018-09-17T04:42:17.081Z,14.10
2018-09-17T04:44:21.313Z,14.00
2018-09-17T04:46:25.464Z,14.10
2018-09-17T04:48:30.108Z,14.20
2018-09-17T04:50:34.357Z,14.20
2018-09-17T04:52:38.588Z,14.20
2018-09-17T04:54:42.883Z,14.10
2018-09-17T04:56:47.087Z,14.20
2018-09-17T04:58:51.532Z,14.20
2018-09-17T05:00:55.713Z,14.20
2018-09-17T05:02:59.826Z,14.10
2018-09-17T05:05:04.088Z,14.10
2018-09-17T05:07:08.392Z,14.20
2018-09-17T05:09:12.558Z,14.20
2018-09-17T05:11:16.739Z,14.20
2018-09-17T05:13:21.013Z,14.30
2018-09-17T05:15:25.187Z,14.20
2018-09-17T05:17:29.383Z,14.20
2018-09-17T05:19:34.648Z,14.10
2018-09-17T05:21:39.121Z,14.10
2018-09-17T05:23:44.025Z,14.10
2018-09-17T05:25:48.351Z,14.10
2018-09-17T05:27:52.675Z,14.10
2018-09-17T05:29:57.838Z,14.10
2018-09-17T05:32:03.045Z,14.20
2018-09-17T05:34:07.385Z,14.20
2018-09-17T05:36:11.564Z,14.20
2018-09-17T05:38:15.805Z,14.30
2018-09-17T05:40:20.064Z,14.20
2018-09-17T05:42:24.243Z,14.30
2018-09-17T05:44:28.883Z,14.20
2018-09-17T05:46:33.379Z,14.20
2018-09-17T05:48:37.576Z,14.20
2018-09-17T05:50:41.811Z,14.20
2018-09-17T05:52:46.042Z,14.20
2018-09-17T05:54:50.205Z,14.20
2018-09-17T05:56:54.379Z,14.30
2018-09-17T05:58:58.529Z,14.30
2018-09-17T06:01:02.863Z,14.30
2018-09-17T06:03:07.183Z,14.30
2018-09-17T06:05:11.395Z,14.20
2018-09-17T06:07:15.584Z,14.20
2018-09-17T06:09:19.775Z,14.20
2018-09-17T06:11:24.086Z,14.20
2018-09-17T06:13:28.244Z,14.20
2018-09-17T06:15:32.427Z,14.20
2018-09-17T06:17:36.680Z,14.30
2018-09-17T06:19:40.878Z,14.20
2018-09-17T06:21:45.064Z,14.20
2018-09-17T06:23:49.235Z,14.10
2018-09-17T06:25:53.426Z,14.10
2018-09-17T06:27:57.580Z,14.10
2018-09-17T06:30:01.837Z,14.20
2018-09-17T06:32:06.018Z,14.20
2018-09-17T06:34:10.278Z,14.30
2018-09-17T06:36:14.454Z,14.30
2018-09-17T06:38:18.631Z,14.30
2018-09-17T06:40:22.845Z,14.30
2018-09-17T06:42:27.006Z,14.10
2018-09-17T06:44:31.306Z,14.20
2018-09-17T06:46:35.491Z,14.30
2018-09-17T06:48:39.660Z,14.30
2018-09-17T06:50:43.972Z,14.30
2018-09-17T06:52:48.209Z,14.30
2018-09-17T06:54:52.398Z,14.30
2018-09-17T06:56:56.573Z,14.20
2018-09-17T06:59:00.806Z,14.30
2018-09-17T07:01:05.003Z,14.20
2018-09-17T07:03:09.234Z,14.20
2018-09-17T07:05:13.390Z,14.20
2018-09-17T07:07:17.583Z,14.30
2018-09-17T07:09:21.799Z,14.30
2018-09-17T07:11:26.040Z,14.40
2018-09-17T07:13:30.230Z,14.40
2018-09-17T07:15:34.439Z,14.40
2018-09-17T07:17:38.947Z,14.50
2018-09-17T07:19:43.117Z,14.50
2018-09-17T07:21:47.288Z,14.60
2018-09-17T07:23:51.502Z,14.60
2018-09-17T07:25:55.681Z,14.60
2018-09-17T07:27:59.866Z,14.70
2018-09-17T07:30:04.143Z,14.70
2018-09-17T07:32:08.497Z,14.80
2018-09-17T07:34:13.022Z,14.80
2018-09-17T07:36:17.299Z,14.80
2018-09-17T07:38:21.492Z,14.80
2018-09-17T07:40:25.711Z,14.90
2018-09-17T07:42:29.940Z,14.90
2018-09-17T07:44:34.134Z,14.90
2018-09-17T07:46:38.315Z,14.90
2018-09-17T07:48:42.659Z,14.90
2018-09-17T07:50:46.998Z,14.90
2018-09-17T07:52:51.243Z,14.90
2018-09-17T07:54:55.635Z,15.00
2018-09-17T07:57:00.049Z,15.00
2018-09-17T07:59:04.298Z,15.00
2018-09-17T08:01:08.771Z,15.00
2018-09-17T08:03:12.957Z,15.10
2018-09-17T08:05:17.476Z,15.20
2018-09-17T08:07:21.694Z,15.20
2018-09-17T08:09:25.898Z,15.20
2018-09-17T08:11:30.098Z,15.40
2018-09-17T08:13:34.345Z,15.30
2018-09-17T08:15:38.575Z,15.70
2018-09-17T08:17:47.242Z,15.80
2018-09-17T08:19:52.628Z,15.60
2018-09-17T08:21:58.885Z,15.70
2018-09-17T08:24:03.151Z,15.80
2018-09-17T08:26:07.422Z,15.80
2018-09-17T08:28:11.614Z,15.90
2018-09-17T08:30:16.210Z,15.90
2018-09-17T08:32:20.359Z,15.80
2018-09-17T08:34:24.512Z,16.10
2018-09-17T08:36:29.137Z,16.00
2018-09-17T08:38:33.318Z,16.00
2018-09-17T08:40:37.521Z,15.90
2018-09-17T08:42:41.784Z,16.00
2018-09-17T08:44:45.976Z,16.10
2018-09-17T08:46:50.182Z,16.10
2018-09-17T08:48:54.349Z,16.50
2018-09-17T08:50:58.546Z,16.40
2018-09-17T08:53:02.786Z,16.70
2018-09-17T08:55:11.127Z,16.70
2018-09-17T08:57:20.446Z,16.80
2018-09-17T08:59:29.856Z,16.90
2018-09-17T09:01:39.080Z,17.00
2018-09-17T09:03:48.418Z,16.90
2018-09-17T09:05:57.683Z,17.10
2018-09-17T09:08:01.932Z,17.40
2018-09-17T09:10:11.680Z,17.60
2018-09-17T09:12:18.962Z,17.70
2018-09-17T09:14:28.395Z,17.60
2018-09-17T09:16:32.632Z,17.70
2018-09-17T09:18:36.878Z,17.60
2018-09-17T09:20:41.069Z,17.60
2018-09-17T09:22:45.282Z,17.70
2018-09-17T09:24:49.562Z,17.80
2018-09-17T09:26:53.798Z,17.80
2018-09-17T09:28:58.037Z,18.00
2018-09-17T09:31:02.286Z,18.10
2018-09-17T09:33:06.460Z,18.30
2018-09-17T09:35:10.793Z,18.20
2018-09-17T09:37:14.990Z,18.20
2018-09-17T09:39:19.206Z,18.40
2018-09-17T09:41:23.435Z,18.60
2018-09-17T09:43:27.628Z,18.60
2018-09-17T09:45:31.845Z,18.50
2018-09-17T09:47:36.046Z,18.60
2018-09-17T09:49:40.278Z,18.70
2018-09-17T09:51:44.475Z,18.70
2018-09-17T09:53:48.671Z,18.80
2018-09-17T09:55:52.886Z,18.50
2018-09-17T09:57:57.067Z,18.60
2018-09-17T10:00:01.267Z,18.60
2018-09-17T10:02:10.610Z,18.70
2018-09-17T10:04:19.931Z,19.00
2018-09-17T10:06:24.409Z,18.90
2018-09-17T10:08:28.695Z,19.00
2018-09-17T10:10:37.923Z,19.00
2018-09-17T10:12:47.202Z,19.10
2018-09-17T10:14:56.559Z,19.00
2018-09-17T10:17:05.870Z,19.10
2018-09-17T10:19:15.066Z,19.40
2018-09-17T10:21:19.314Z,19.30
2018-09-17T10:23:23.494Z,19.40
2018-09-17T10:25:27.651Z,19.20
2018-09-17T10:27:31.878Z,19.20
2018-09-17T10:29:36.054Z,19.20
2018-09-17T10:31:40.254Z,19.40
2018-09-17T10:33:44.494Z,19.40
2018-09-17T10:35:48.849Z,19.40
2018-09-17T10:37:53.076Z,19.70
2018-09-17T10:39:57.348Z,19.60
2018-09-17T10:42:01.525Z,19.70
2018-09-17T10:44:05.807Z,20.00
2018-09-17T10:46:09.965Z,20.20
2018-09-17T10:48:14.193Z,20.00
2018-09-17T10:50:18.390Z,19.90
2018-09-17T10:52:22.552Z,19.90
2018-09-17T10:54:26.774Z,20.00
2018-09-17T10:56:30.966Z,20.40
2018-09-17T10:58:35.178Z,20.30
2018-09-17T11:00:39.367Z,20.50
2018-09-17T11:02:43.499Z,20.70
2018-09-17T11:04:47.688Z,20.70
2018-09-17T11:06:51.925Z,20.70
2018-09-17T11:08:56.260Z,20.70
2018-09-17T11:11:00.433Z,20.60
2018-09-17T11:13:04.652Z,20.60
2018-09-17T11:15:10.153Z,20.90
2018-09-17T11:17:14.400Z,20.90
2018-09-17T11:19:18.701Z,20.70
2018-09-17T11:21:22.895Z,20.30
2018-09-17T11:23:27.066Z,20.20
2018-09-17T11:25:31.246Z,20.60
2018-09-17T11:27:35.384Z,20.80
2018-09-17T11:29:39.566Z,20.50
2018-09-17T11:31:43.792Z,20.20
2018-09-17T11:33:48.713Z,20.00
2018-09-17T11:35:52.911Z,20.10
2018-09-17T11:37:57.167Z,20.10
2018-09-17T11:40:01.519Z,19.70
2018-09-17T11:42:05.818Z,20.50
2018-09-17T11:44:10.280Z,20.20
2018-09-17T11:46:15.498Z,20.60
2018-09-17T11:48:19.695Z,20.40
2018-09-17T11:50:23.977Z,20.30
2018-09-17T11:52:28.184Z,19.90
2018-09-17T11:54:32.343Z,20.40
2018-09-17T11:56:36.559Z,19.90
2018-09-17T11:58:40.759Z,20.10
2018-09-17T12:00:50.136Z,20.60
2018-09-17T12:02:59.437Z,20.50
2018-09-17T12:05:08.976Z,21.20
2018-09-17T12:07:18.288Z,21.20
2018-09-17T12:09:22.601Z,20.80
2018-09-17T12:11:26.744Z,20.90
2018-09-17T12:13:30.998Z,21.10
2018-09-17T12:15:39.241Z,20.60
2018-09-17T12:17:43.444Z,21.10
2018-09-17T12:19:47.723Z,21.30
2018-09-17T12:21:51.975Z,21.20
2018-09-17T12:23:56.257Z,21.40
2018-09-17T12:26:00.478Z,21.50
2018-09-17T12:28:04.803Z,21.50
2018-09-17T12:30:09.051Z,21.50
2018-09-17T12:32:13.258Z,21.40
2018-09-17T12:34:17.432Z,20.90
2018-09-17T12:36:21.687Z,21.60
2018-09-17T12:38:25.916Z,21.80
2018-09-17T12:40:30.130Z,21.70
2018-09-17T12:42:34.386Z,21.40
2018-09-17T12:44:38.589Z,21.60
2018-09-17T12:46:42.812Z,21.80
2018-09-17T12:48:47.038Z,22.70
2018-09-17T12:50:51.276Z,22.80
2018-09-17T12:52:55.433Z,22.40
2018-09-17T12:54:59.601Z,21.90
2018-09-17T12:57:03.859Z,21.90
2018-09-17T12:59:08.082Z,21.80
2018-09-17T13:01:12.305Z,22.60
2018-09-17T13:03:16.546Z,23.30
2018-09-17T13:05:20.822Z,23.20
2018-09-17T13:07:25.021Z,22.70
2018-09-17T13:09:29.159Z,22.70
2018-09-17T13:11:33.386Z,22.70
2018-09-17T13:13:39.070Z,22.40
2018-09-17T13:15:48.402Z,22.90
2018-09-17T13:17:52.680Z,22.20
2018-09-17T13:19:56.922Z,22.50
2018-09-17T13:22:01.130Z,22.20
2018-09-17T13:24:07.156Z,22.40
2018-09-17T13:26:12.443Z,22.30
2018-09-17T13:28:21.642Z,23.50
2018-09-17T13:30:25.973Z,24.00
2018-09-17T13:32:31.162Z,24.60
2018-09-17T13:34:35.388Z,24.40
2018-09-17T13:36:39.592Z,24.50
2018-09-17T13:38:43.863Z,24.60
2018-09-17T13:40:48.106Z,25.30
2018-09-17T13:42:52.330Z,25.30
2018-09-17T13:44:56.517Z,25.10
2018-09-17T13:47:00.710Z,25.40
2018-09-17T13:49:04.943Z,25.10
2018-09-17T13:51:09.159Z,25.20
2018-09-17T13:53:13.442Z,25.80
2018-09-17T13:55:27.060Z,25.60
2018-09-17T13:57:31.565Z,26.00
2018-09-17T13:59:35.781Z,25.00
2018-09-17T14:01:40.034Z,25.00
2018-09-17T14:03:44.229Z,26.70
2018-09-17T14:05:48.826Z,26.40
2018-09-17T14:07:53.025Z,26.10
2018-09-17T14:09:57.285Z,26.10
2018-09-17T14:12:01.458Z,25.60
2018-09-17T14:14:05.798Z,26.00
2018-09-17T14:16:10.577Z,26.80
2018-09-17T14:18:14.738Z,26.10
2018-09-17T14:20:19.042Z,25.80
2018-09-17T14:22:23.195Z,25.80
2018-09-17T14:24:27.431Z,26.60
2018-09-17T14:26:31.657Z,26.40
2018-09-17T14:28:35.800Z,26.40
2018-09-17T14:30:40.118Z,26.10
2018-09-17T14:32:49.433Z,25.80
2018-09-17T14:34:53.670Z,26.40
2018-09-17T14:36:57.848Z,26.70
2018-09-17T14:39:02.118Z,26.20
2018-09-17T14:41:06.704Z,26.10
2018-09-17T14:43:10.866Z,26.40
2018-09-17T14:45:15.110Z,26.50
2018-09-17T14:47:19.379Z,26.90
2018-09-17T14:49:23.602Z,27.00
2018-09-17T14:51:27.840Z,27.10
2018-09-17T14:53:32.032Z,26.90
2018-09-17T14:55:36.265Z,26.90
2018-09-17T14:57:40.498Z,26.50
2018-09-17T14:59:44.697Z,26.70
2018-09-17T15:01:48.903Z,26.90
2018-09-17T15:03:53.104Z,27.10
2018-09-17T15:05:57.406Z,27.50
2018-09-17T15:08:01.753Z,27.80
2018-09-17T15:10:07.071Z,27.20
2018-09-17T15:12:11.228Z,27.10
2018-09-17T15:14:15.515Z,26.80
2018-09-17T15:16:19.808Z,26.70
2018-09-17T15:18:24.272Z,26.70
2018-09-17T15:20:28.795Z,26.80
2018-09-17T15:22:33.024Z,27.00
2018-09-17T15:24:37.233Z,27.20
2018-09-17T15:26:41.653Z,27.10
2018-09-17T15:28:45.849Z,27.30
2018-09-17T15:30:50.150Z,27.20
2018-09-17T15:32:54.263Z,27.10
2018-09-17T15:34:58.477Z,26.70
2018-09-17T15:37:02.718Z,26.80
2018-09-17T15:39:10.300Z,26.90
2018-09-17T15:41:14.860Z,27.10
2018-09-17T15:43:18.793Z,27.20
2018-09-17T15:45:22.994Z,27.10
2018-09-17T15:47:27.208Z,26.90
2018-09-17T15:49:31.431Z,26.60
2018-09-17T15:51:35.710Z,26.60
2018-09-17T15:53:39.926Z,26.70
2018-09-17T15:55:44.340Z,26.90
2018-09-17T15:57:48.543Z,26.90
2018-09-17T15:59:52.676Z,26.80
2018-09-17T16:01:56.839Z,26.70
2018-09-17T16:04:01.030Z,26.30
2018-09-17T16:06:05.220Z,26.00
2018-09-17T16:08:09.428Z,25.80
2018-09-17T16:10:13.674Z,25.70
2018-09-17T16:12:17.851Z,25.80
2018-09-17T16:14:22.131Z,25.80
2018-09-17T16:16:26.306Z,25.60
2018-09-17T16:18:30.507Z,25.50
2018-09-17T16:20:34.717Z,25.30
2018-09-17T16:22:38.889Z,25.10
2018-09-17T16:24:43.454Z,24.80
2018-09-17T16:26:47.637Z,24.80
2018-09-17T16:28:51.813Z,24.70
2018-09-17T16:30:56.014Z,24.60
2018-09-17T16:33:00.187Z,24.40
2018-09-17T16:35:04.436Z,24.40
2018-09-17T16:37:08.590Z,24.30
2018-09-17T16:39:14.809Z,24.30
2018-09-17T16:41:19.110Z,24.20
2018-09-17T16:43:23.246Z,24.00
2018-09-17T16:45:27.444Z,24.00
2018-09-17T16:47:31.930Z,23.90
2018-09-17T16:49:36.112Z,23.70
2018-09-17T16:51:40.282Z,23.60
2018-09-17T16:53:44.542Z,23.60
2018-09-17T16:55:48.746Z,23.50
2018-09-17T16:57:53.225Z,23.40
2018-09-17T16:59:57.402Z,23.30
2018-09-17T17:02:01.545Z,23.30
2018-09-17T17:04:05.790Z,23.10
2018-09-17T17:06:09.985Z,23.00
2018-09-17T17:08:14.232Z,22.90
2018-09-17T17:10:18.471Z,22.80
2018-09-17T17:12:22.703Z,22.80
2018-09-17T17:14:27.192Z,22.70
2018-09-17T17:16:31.367Z,22.60
2018-09-17T17:18:35.716Z,22.50
2018-09-17T17:20:40.030Z,22.50
2018-09-17T17:22:44.238Z,22.40
2018-09-17T17:24:48.419Z,22.40
2018-09-17T17:26:52.690Z,22.40
2018-09-17T17:28:56.928Z,22.30
2018-09-17T17:31:01.175Z,22.20
2018-09-17T17:33:05.554Z,22.20
2018-09-17T17:35:09.817Z,22.10
2018-09-17T17:37:14.042Z,22.00
2018-09-17T17:39:18.388Z,21.90
2018-09-17T17:41:22.567Z,21.90
2018-09-17T17:43:26.758Z,21.90
2018-09-17T17:45:30.976Z,21.80
2018-09-17T17:47:35.124Z,21.70
2018-09-17T17:49:42.260Z,21.60
2018-09-17T17:51:46.571Z,21.50
2018-09-17T17:53:50.744Z,21.50
2018-09-17T17:55:54.924Z,21.40
2018-09-17T17:57:59.167Z,21.40
2018-09-17T18:00:03.379Z,21.40
2018-09-17T18:02:07.560Z,21.40
2018-09-17T18:04:11.859Z,21.40
2018-09-17T18:06:16.007Z,21.40
2018-09-17T18:08:20.204Z,21.40
2018-09-17T18:10:24.413Z,21.30
2018-09-17T18:12:28.783Z,21.30
2018-09-17T18:14:32.971Z,21.10
2018-09-17T18:16:37.231Z,21.10
2018-09-17T18:18:41.371Z,21.00
2018-09-17T18:20:45.919Z,21.00
2018-09-17T18:22:50.124Z,20.90
2018-09-17T18:24:54.394Z,20.80
2018-09-17T18:26:58.721Z,20.70
2018-09-17T18:29:02.844Z,20.70
2018-09-17T18:31:07.106Z,20.70
2018-09-17T18:33:11.418Z,20.70
2018-09-17T18:35:15.654Z,20.80
2018-09-17T18:37:19.859Z,20.70
2018-09-17T18:39:24.194Z,20.70
2018-09-17T18:41:28.494Z,20.70
2018-09-17T18:43:32.732Z,20.50
2018-09-17T18:45:36.962Z,20.60
2018-09-17T18:47:41.356Z,20.40
2018-09-17T18:49:45.571Z,20.30
2018-09-17T18:51:49.682Z,20.30
2018-09-17T18:53:53.868Z,20.40
2018-09-17T18:55:58.072Z,20.30
2018-09-17T18:58:02.312Z,20.30
2018-09-17T19:00:07.617Z,20.20
2018-09-17T19:02:11.762Z,20.10
2018-09-17T19:04:15.939Z,20.10
2018-09-17T19:06:20.264Z,20.00
2018-09-17T19:08:24.405Z,20.10
2018-09-17T19:10:28.614Z,20.10
2018-09-17T19:12:32.915Z,20.10
2018-09-17T19:14:42.132Z,20.00
2018-09-17T19:16:54.301Z,19.80
2018-09-17T19:18:58.531Z,19.90
2018-09-17T19:21:02.984Z,19.90
2018-09-17T19:23:12.150Z,19.80
2018-09-17T19:25:16.734Z,19.80
2018-09-17T19:27:20.944Z,19.70
2018-09-17T19:29:25.191Z,19.50
2018-09-17T19:31:29.391Z,19.60
2018-09-17T19:33:33.615Z,19.70
2018-09-17T19:35:37.774Z,19.70
2018-09-17T19:37:47.216Z,19.60
2018-09-17T19:39:56.659Z,19.60
2018-09-17T19:42:00.984Z,19.40
2018-09-17T19:44:05.203Z,19.60
2018-09-17T19:46:14.713Z,19.70
2018-09-17T19:48:18.925Z,19.80
2018-09-17T19:50:28.140Z,19.70
2018-09-17T19:52:32.343Z,19.40
2018-09-17T19:54:36.560Z,19.60
2018-09-17T19:56:41.909Z,19.40
2018-09-17T19:58:51.389Z,19.40
2018-09-17T20:00:55.747Z,19.40
2018-09-17T20:02:59.921Z,19.20
2018-09-17T20:05:10.506Z,19.00
2018-09-17T20:07:14.700Z,19.10
2018-09-17T20:09:18.961Z,19.20
2018-09-17T20:11:23.213Z,19.20
2018-09-17T20:13:27.484Z,19.20
2018-09-17T20:15:31.902Z,19.00
2018-09-17T20:17:36.361Z,19.00
2018-09-17T20:19:40.590Z,18.90
2018-09-17T20:21:44.771Z,18.80
2018-09-17T20:23:48.971Z,18.90
2018-09-17T20:25:53.205Z,18.70
2018-09-17T20:27:57.317Z,18.70
2018-09-17T20:30:01.501Z,18.80
2018-09-17T20:32:06.492Z,18.90
2018-09-17T20:34:18.767Z,18.80
2018-09-17T20:36:23.096Z,18.70
2018-09-17T20:38:27.540Z,18.80
2018-09-17T20:40:31.902Z,18.70
2018-09-17T20:42:36.318Z,18.70
2018-09-17T20:44:44.522Z,18.80
2018-09-17T20:46:48.706Z,18.90
2018-09-17T20:48:53.163Z,18.60
2018-09-17T20:51:01.145Z,18.40
2018-09-17T20:53:08.106Z,18.50
2018-09-17T20:55:12.336Z,18.50
2018-09-17T20:57:16.535Z,18.60
2018-09-17T20:59:21.127Z,18.50
2018-09-17T21:01:27.275Z,18.50
2018-09-17T21:03:31.382Z,18.50
2018-09-17T21:05:38.461Z,18.40
2018-09-17T21:07:42.627Z,18.40
2018-09-17T21:09:46.776Z,18.50
2018-09-17T21:11:53.871Z,18.40
2018-09-17T21:13:58.112Z,18.30
2018-09-17T21:16:05.320Z,18.40
2018-09-17T21:18:10.176Z,18.40
2018-09-17T21:20:14.962Z,18.30
2018-09-17T21:22:19.715Z,18.30
2018-09-17T21:24:24.336Z,18.20
2018-09-17T21:26:28.520Z,18.20
2018-09-17T21:28:32.987Z,18.00
2018-09-17T21:30:37.162Z,18.10
2018-09-17T21:32:41.324Z,18.00
2018-09-17T21:34:53.444Z,17.90
2018-09-17T21:36:57.915Z,18.00
2018-09-17T21:39:02.081Z,18.10
2018-09-17T21:41:06.478Z,18.00
2018-09-17T21:43:10.838Z,18.00
2018-09-17T21:45:14.945Z,17.70
2018-09-17T21:47:19.146Z,17.70
2018-09-17T21:49:23.806Z,17.70
2018-09-17T21:51:27.989Z,17.70
2018-09-17T21:53:35.332Z,17.80
2018-09-17T21:55:39.634Z,17.70
2018-09-17T21:57:46.546Z,17.60
2018-09-17T21:59:50.722Z,17.70
2018-09-17T22:01:56.789Z,17.70
2018-09-17T22:04:01.123Z,17.80
2018-09-17T22:06:05.297Z,17.70
2018-09-17T22:08:12.674Z,17.70
2018-09-17T22:10:17.317Z,17.60
2018-09-17T22:12:22.422Z,17.60
2018-09-17T22:14:27.018Z,17.60
2018-09-17T22:16:31.223Z,17.50
2018-09-17T22:18:35.563Z,17.40
2018-09-17T22:20:42.499Z,17.40
2018-09-17T22:22:46.634Z,17.40
2018-09-17T22:24:50.810Z,17.40
2018-09-17T22:26:58.514Z,17.40
2018-09-17T22:29:02.939Z,17.50
2018-09-17T22:31:07.453Z,17.50
2018-09-17T22:33:11.656Z,17.40
2018-09-17T22:35:25.765Z,17.30
2018-09-17T22:37:30.643Z,17.20
2018-09-17T22:39:42.957Z,17.10
2018-09-17T22:41:47.511Z,17.10
2018-09-17T22:43:54.621Z,17.20
2018-09-17T22:45:58.883Z,17.10
2018-09-17T22:48:03.134Z,17.10
2018-09-17T22:50:09.781Z,17.10
2018-09-17T22:52:14.218Z,17.10
2018-09-17T22:54:18.431Z,17.10
2018-09-17T22:56:22.598Z,17.10
2018-09-17T22:58:26.781Z,17.00
2018-09-17T23:00:35.867Z,17.10
2018-09-17T23:02:40.023Z,16.80
2018-09-17T23:04:44.235Z,16.70
2018-09-17T23:06:48.517Z,16.80
2018-09-17T23:08:52.794Z,16.90
2018-09-17T23:10:56.948Z,16.80
2018-09-17T23:13:01.147Z,17.00
2018-09-17T23:15:07.127Z,16.90
2018-09-17T23:17:11.268Z,16.80
2018-09-17T23:19:23.526Z,16.80
2018-09-17T23:21:27.914Z,16.80
2018-09-17T23:23:32.142Z,16.80
2018-09-17T23:25:36.389Z,16.70
2018-09-17T23:27:40.775Z,16.80
2018-09-17T23:29:44.902Z,16.80
2018-09-17T23:31:49.096Z,16.90
2018-09-17T23:33:53.284Z,16.70
2018-09-17T23:35:57.442Z,16.80
2018-09-17T23:38:01.702Z,16.80
2018-09-17T23:40:05.915Z,16.80
2018-09-17T23:42:10.128Z,16.50
2018-09-17T23:44:14.355Z,16.60
2018-09-17T23:46:18.571Z,16.60
2018-09-17T23:48:22.761Z,16.50
2018-09-17T23:50:26.897Z,16.50
2018-09-17T23:52:31.024Z,16.50
2018-09-17T23:54:35.210Z,16.60
2018-09-17T23:56:39.400Z,16.60
2018-09-17T23:58:43.624Z,16.50
